sensor_id;sensor_type;location;lat;lon;timestamp;temperature;humidity
64937;SHT30;51452;47.698;19.050;2024-03-23T00:55:37;10.48;64.40
64937;SHT30;51452;47.698;19.050;2024-03-23T00:58:03;10.52;64.43
64937;SHT30;51452;47.698;19.050;2024-03-23T01:00:28;10.45;64.42
64937;SHT30;51452;47.698;19.050;2024-03-23T01:02:54;10.37;64.69
64937;SHT30;51452;47.698;19.050;2024-03-23T01:05:19;10.42;64.58
64937;SHT30;51452;47.698;19.050;2024-03-23T01:07:45;10.42;64.70
64937;SHT30;51452;47.698;19.050;2024-03-23T01:10:10;10.42;64.56
64937;SHT30;51452;47.698;19.050;2024-03-23T01:12:35;10.38;64.77
64937;SHT30;51452;47.698;19.050;2024-03-23T01:15:01;10.38;64.70
64937;SHT30;51452;47.698;19.050;2024-03-23T01:17:26;10.44;64.54
64937;SHT30;51452;47.698;19.050;2024-03-23T01:19:51;10.44;64.55
64937;SHT30;51452;47.698;19.050;2024-03-23T01:22:17;10.42;64.67
64937;SHT30;51452;47.698;19.050;2024-03-23T01:24:43;10.33;64.82
64937;SHT30;51452;47.698;19.050;2024-03-23T01:27:08;10.33;64.78
64937;SHT30;51452;47.698;19.050;2024-03-23T01:29:34;10.24;65.15
64937;SHT30;51452;47.698;19.050;2024-03-23T01:31:59;10.22;64.98
64937;SHT30;51452;47.698;19.050;2024-03-23T01:34:24;10.18;65.48
64937;SHT30;51452;47.698;19.050;2024-03-23T01:36:50;10.17;65.62
64937;SHT30;51452;47.698;19.050;2024-03-23T01:39:16;10.14;65.48
64937;SHT30;51452;47.698;19.050;2024-03-23T01:41:41;10.13;65.46
64937;SHT30;51452;47.698;19.050;2024-03-23T01:44:08;10.14;65.42
64937;SHT30;51452;47.698;19.050;2024-03-23T01:46:37;10.18;65.25
64937;SHT30;51452;47.698;19.050;2024-03-23T01:49:04;10.21;65.19
64937;SHT30;51452;47.698;19.050;2024-03-23T01:51:30;10.25;65.09
64937;SHT30;51452;47.698;19.050;2024-03-23T01:53:56;10.33;64.83
64937;SHT30;51452;47.698;19.050;2024-03-23T01:56:21;10.28;65.04
64937;SHT30;51452;47.698;19.050;2024-03-23T01:58:47;10.30;64.95
64937;SHT30;51452;47.698;19.050;2024-03-23T02:01:12;10.28;65.00
64937;SHT30;51452;47.698;19.050;2024-03-23T02:03:38;10.25;65.03
64937;SHT30;51452;47.698;19.050;2024-03-23T02:06:03;10.17;64.90
64937;SHT30;51452;47.698;19.050;2024-03-23T02:08:30;10.03;65.61
64937;SHT30;51452;47.698;19.050;2024-03-23T02:10:56;10.00;65.71
64937;SHT30;51452;47.698;19.050;2024-03-23T02:13:21;10.00;65.88
64937;SHT30;51452;47.698;19.050;2024-03-23T02:15:46;9.93;66.07
64937;SHT30;51452;47.698;19.050;2024-03-23T02:18:12;9.97;65.60
64937;SHT30;51452;47.698;19.050;2024-03-23T02:20:38;9.93;65.74
64937;SHT30;51452;47.698;19.050;2024-03-23T02:23:04;9.83;65.99
64937;SHT30;51452;47.698;19.050;2024-03-23T02:25:32;9.86;66.30
64937;SHT30;51452;47.698;19.050;2024-03-23T02:27:57;9.82;66.26
64937;SHT30;51452;47.698;19.050;2024-03-23T02:30:24;9.80;66.13
64937;SHT30;51452;47.698;19.050;2024-03-23T02:32:50;9.79;66.30
64937;SHT30;51452;47.698;19.050;2024-03-23T02:35:15;9.74;65.85
64937;SHT30;51452;47.698;19.050;2024-03-23T02:37:40;9.72;66.28
64937;SHT30;51452;47.698;19.050;2024-03-23T02:40:06;9.77;66.45
64937;SHT30;51452;47.698;19.050;2024-03-23T02:42:32;9.77;66.18
64937;SHT30;51452;47.698;19.050;2024-03-23T02:44:58;9.64;66.30
64937;SHT30;51452;47.698;19.050;2024-03-23T02:47:23;9.57;66.98
64937;SHT30;51452;47.698;19.050;2024-03-23T02:49:49;9.62;66.63
64937;SHT30;51452;47.698;19.050;2024-03-23T02:52:14;9.66;66.22
64937;SHT30;51452;47.698;19.050;2024-03-23T02:54:39;9.67;66.66
64937;SHT30;51452;47.698;19.050;2024-03-23T02:57:07;9.64;66.77
64937;SHT30;51452;47.698;19.050;2024-03-23T02:59:32;9.69;66.81
64937;SHT30;51452;47.698;19.050;2024-03-23T03:01:58;9.73;66.67
64937;SHT30;51452;47.698;19.050;2024-03-23T03:04:25;9.80;66.75
64937;SHT30;51452;47.698;19.050;2024-03-23T03:06:50;9.79;66.62
64937;SHT30;51452;47.698;19.050;2024-03-23T03:09:15;9.76;66.92
64937;SHT30;51452;47.698;19.050;2024-03-23T03:11:42;9.77;66.99
64937;SHT30;51452;47.698;19.050;2024-03-23T03:14:07;9.77;67.10
64937;SHT30;51452;47.698;19.050;2024-03-23T03:16:33;9.82;67.11
64937;SHT30;51452;47.698;19.050;2024-03-23T03:18:59;9.82;67.10
64937;SHT30;51452;47.698;19.050;2024-03-23T03:21:24;9.79;67.28
64937;SHT30;51452;47.698;19.050;2024-03-23T03:23:50;9.77;67.27
64937;SHT30;51452;47.698;19.050;2024-03-23T03:26:16;9.79;67.25
64937;SHT30;51452;47.698;19.050;2024-03-23T03:28:42;9.80;67.27
64937;SHT30;51452;47.698;19.050;2024-03-23T03:31:08;9.69;67.43
64937;SHT30;51452;47.698;19.050;2024-03-23T03:33:33;9.77;67.25
64937;SHT30;51452;47.698;19.050;2024-03-23T03:35:59;9.76;67.51
64937;SHT30;51452;47.698;19.050;2024-03-23T03:38:24;9.70;67.64
64937;SHT30;51452;47.698;19.050;2024-03-23T03:40:49;9.69;67.73
64937;SHT30;51452;47.698;19.050;2024-03-23T03:43:15;9.73;67.69
64937;SHT30;51452;47.698;19.050;2024-03-23T03:45:40;9.67;67.79
64937;SHT30;51452;47.698;19.050;2024-03-23T03:48:06;9.70;68.02
64937;SHT30;51452;47.698;19.050;2024-03-23T03:50:32;9.69;67.97
64937;SHT30;51452;47.698;19.050;2024-03-23T03:52:57;9.59;68.27
64937;SHT30;51452;47.698;19.050;2024-03-23T03:55:22;9.50;68.48
64937;SHT30;51452;47.698;19.050;2024-03-23T03:57:48;9.47;68.69
64937;SHT30;51452;47.698;19.050;2024-03-23T04:00:13;9.46;68.52
64937;SHT30;51452;47.698;19.050;2024-03-23T04:02:39;9.50;68.40
64937;SHT30;51452;47.698;19.050;2024-03-23T04:05:05;9.46;68.38
64937;SHT30;51452;47.698;19.050;2024-03-23T04:07:31;9.47;68.58
64937;SHT30;51452;47.698;19.050;2024-03-23T04:09:57;9.45;68.66
64937;SHT30;51452;47.698;19.050;2024-03-23T04:12:23;9.43;68.67
64937;SHT30;51452;47.698;19.050;2024-03-23T04:14:49;9.42;68.67
64937;SHT30;51452;47.698;19.050;2024-03-23T04:17:14;9.39;68.78
64937;SHT30;51452;47.698;19.050;2024-03-23T04:19:39;9.36;68.95
64937;SHT30;51452;47.698;19.050;2024-03-23T04:22:05;9.32;68.94
64937;SHT30;51452;47.698;19.050;2024-03-23T04:24:30;9.31;68.95
64937;SHT30;51452;47.698;19.050;2024-03-23T04:26:55;9.31;68.91
64937;SHT30;51452;47.698;19.050;2024-03-23T04:29:21;9.28;69.33
64937;SHT30;51452;47.698;19.050;2024-03-23T04:31:46;9.26;69.27
64937;SHT30;51452;47.698;19.050;2024-03-23T04:34:13;9.32;69.16
64937;SHT30;51452;47.698;19.050;2024-03-23T04:36:38;9.31;69.22
64937;SHT30;51452;47.698;19.050;2024-03-23T04:39:03;9.28;69.54
64937;SHT30;51452;47.698;19.050;2024-03-23T04:41:29;9.26;69.61
64937;SHT30;51452;47.698;19.050;2024-03-23T04:43:55;9.32;69.59
64937;SHT30;51452;47.698;19.050;2024-03-23T04:46:20;9.39;70.06
64937;SHT30;51452;47.698;19.050;2024-03-23T04:48:46;9.36;69.85
64937;SHT30;51452;47.698;19.050;2024-03-23T04:51:20;9.26;70.42
64937;SHT30;51452;47.698;19.050;2024-03-23T04:53:46;9.31;70.44
64937;SHT30;51452;47.698;19.050;2024-03-23T04:56:11;9.36;70.27
64937;SHT30;51452;47.698;19.050;2024-03-23T04:58:37;9.39;70.32
64937;SHT30;51452;47.698;19.050;2024-03-23T05:01:02;9.36;70.45
64937;SHT30;51452;47.698;19.050;2024-03-23T05:03:27;9.42;70.92
64937;SHT30;51452;47.698;19.050;2024-03-23T05:05:54;9.40;70.81
64937;SHT30;51452;47.698;19.050;2024-03-23T05:08:19;9.53;70.39
64937;SHT30;51452;47.698;19.050;2024-03-23T05:10:44;9.57;70.95
64937;SHT30;51452;47.698;19.050;2024-03-23T05:13:10;9.62;70.59
64937;SHT30;51452;47.698;19.050;2024-03-23T05:15:36;9.60;70.20
64937;SHT30;51452;47.698;19.050;2024-03-23T05:18:01;9.63;70.31
64937;SHT30;51452;47.698;19.050;2024-03-23T05:20:27;9.66;70.70
64937;SHT30;51452;47.698;19.050;2024-03-23T05:22:54;9.72;70.84
64937;SHT30;51452;47.698;19.050;2024-03-23T05:25:19;9.73;70.81
64937;SHT30;51452;47.698;19.050;2024-03-23T05:27:45;9.74;71.09
64937;SHT30;51452;47.698;19.050;2024-03-23T05:30:10;9.76;70.97
64937;SHT30;51452;47.698;19.050;2024-03-23T05:32:36;9.83;70.73
64937;SHT30;51452;47.698;19.050;2024-03-23T05:35:01;9.83;70.73
64937;SHT30;51452;47.698;19.050;2024-03-23T05:37:27;9.91;70.81
64937;SHT30;51452;47.698;19.050;2024-03-23T05:39:52;9.95;70.19
64937;SHT30;51452;47.698;19.050;2024-03-23T05:42:18;9.95;70.84
64937;SHT30;51452;47.698;19.050;2024-03-23T05:44:44;9.94;70.34
64937;SHT30;51452;47.698;19.050;2024-03-23T05:47:10;10.00;69.94
64937;SHT30;51452;47.698;19.050;2024-03-23T05:49:37;10.03;69.85
64937;SHT30;51452;47.698;19.050;2024-03-23T05:52:02;10.10;69.40
64937;SHT30;51452;47.698;19.050;2024-03-23T05:54:29;10.15;69.67
64937;SHT30;51452;47.698;19.050;2024-03-23T05:56:55;10.20;69.01
64937;SHT30;51452;47.698;19.050;2024-03-23T05:59:20;10.25;68.79
64937;SHT30;51452;47.698;19.050;2024-03-23T06:01:47;10.25;68.61
64937;SHT30;51452;47.698;19.050;2024-03-23T06:04:12;10.33;68.47
64937;SHT30;51452;47.698;19.050;2024-03-23T06:06:39;10.25;68.82
64937;SHT30;51452;47.698;19.050;2024-03-23T06:09:04;10.34;68.67
64937;SHT30;51452;47.698;19.050;2024-03-23T06:11:30;10.41;68.34
64937;SHT30;51452;47.698;19.050;2024-03-23T06:13:56;10.40;68.53
64937;SHT30;51452;47.698;19.050;2024-03-23T06:16:21;10.37;68.50
64937;SHT30;51452;47.698;19.050;2024-03-23T06:18:53;10.42;68.17
64937;SHT30;51452;47.698;19.050;2024-03-23T06:21:19;10.44;68.13
64937;SHT30;51452;47.698;19.050;2024-03-23T06:23:45;10.48;68.26
64937;SHT30;51452;47.698;19.050;2024-03-23T06:26:19;10.52;68.30
64937;SHT30;51452;47.698;19.050;2024-03-23T06:28:46;10.56;67.61
64937;SHT30;51452;47.698;19.050;2024-03-23T06:31:11;10.61;67.84
64937;SHT30;51452;47.698;19.050;2024-03-23T06:33:37;10.68;67.45
64937;SHT30;51452;47.698;19.050;2024-03-23T06:36:04;10.75;67.05
64937;SHT30;51452;47.698;19.050;2024-03-23T06:38:30;10.77;67.24
64937;SHT30;51452;47.698;19.050;2024-03-23T06:40:55;10.85;66.89
64937;SHT30;51452;47.698;19.050;2024-03-23T06:43:21;10.92;66.92
64937;SHT30;51452;47.698;19.050;2024-03-23T06:45:53;11.07;67.16
64937;SHT30;51452;47.698;19.050;2024-03-23T06:48:19;11.30;67.10
64937;SHT30;51452;47.698;19.050;2024-03-23T06:50:44;11.48;66.61
64937;SHT30;51452;47.698;19.050;2024-03-23T06:53:11;11.58;66.50
64937;SHT30;51452;47.698;19.050;2024-03-23T06:55:37;11.73;65.88
64937;SHT30;51452;47.698;19.050;2024-03-23T06:58:02;11.84;65.31
64937;SHT30;51452;47.698;19.050;2024-03-23T07:00:28;11.88;64.94
64937;SHT30;51452;47.698;19.050;2024-03-23T07:02:53;11.84;65.23
64937;SHT30;51452;47.698;19.050;2024-03-23T07:05:19;11.88;64.83
64937;SHT30;51452;47.698;19.050;2024-03-23T07:07:44;11.79;65.05
64937;SHT30;51452;47.698;19.050;2024-03-23T07:10:10;11.84;65.16
64937;SHT30;51452;47.698;19.050;2024-03-23T07:12:35;11.89;65.93
64937;SHT30;51452;47.698;19.050;2024-03-23T07:15:00;12.09;65.66
64937;SHT30;51452;47.698;19.050;2024-03-23T07:17:26;12.25;65.04
64937;SHT30;51452;47.698;19.050;2024-03-23T07:19:51;12.39;65.08
64937;SHT30;51452;47.698;19.050;2024-03-23T07:22:17;12.46;64.34
64937;SHT30;51452;47.698;19.050;2024-03-23T07:24:42;12.67;64.56
64937;SHT30;51452;47.698;19.050;2024-03-23T07:27:08;12.85;64.17
64937;SHT30;51452;47.698;19.050;2024-03-23T07:29:36;12.87;63.59
64937;SHT30;51452;47.698;19.050;2024-03-23T07:32:02;12.85;63.67
64937;SHT30;51452;47.698;19.050;2024-03-23T07:34:27;12.88;63.76
64937;SHT30;51452;47.698;19.050;2024-03-23T07:36:53;12.84;63.69
64937;SHT30;51452;47.698;19.050;2024-03-23T07:39:18;12.84;63.87
64937;SHT30;51452;47.698;19.050;2024-03-23T07:41:47;12.87;63.56
64937;SHT30;51452;47.698;19.050;2024-03-23T07:44:12;12.84;63.11
64937;SHT30;51452;47.698;19.050;2024-03-23T07:46:38;12.77;63.05
64937;SHT30;51452;47.698;19.050;2024-03-23T07:49:06;12.90;62.75
64937;SHT30;51452;47.698;19.050;2024-03-23T07:51:31;12.93;62.66
64937;SHT30;51452;47.698;19.050;2024-03-23T07:53:58;13.00;62.93
64937;SHT30;51452;47.698;19.050;2024-03-23T07:56:23;13.01;62.73
64937;SHT30;51452;47.698;19.050;2024-03-23T07:58:49;13.12;63.13
64937;SHT30;51452;47.698;19.050;2024-03-23T08:01:16;13.08;62.48
64937;SHT30;51452;47.698;19.050;2024-03-23T08:03:43;13.10;62.95
64937;SHT30;51452;47.698;19.050;2024-03-23T08:06:13;13.11;63.07
64937;SHT30;51452;47.698;19.050;2024-03-23T08:08:40;13.21;63.46
64937;SHT30;51452;47.698;19.050;2024-03-23T08:11:06;13.26;63.30
64937;SHT30;51452;47.698;19.050;2024-03-23T08:13:32;13.34;63.09
64937;SHT30;51452;47.698;19.050;2024-03-23T08:15:59;13.38;62.99
64937;SHT30;51452;47.698;19.050;2024-03-23T08:18:25;13.41;62.98
64937;SHT30;51452;47.698;19.050;2024-03-23T08:20:59;13.42;62.46
64937;SHT30;51452;47.698;19.050;2024-03-23T08:23:25;13.38;62.46
64937;SHT30;51452;47.698;19.050;2024-03-23T08:25:51;13.44;62.68
64937;SHT30;51452;47.698;19.050;2024-03-23T08:28:17;13.45;63.27
64937;SHT30;51452;47.698;19.050;2024-03-23T08:30:43;13.48;62.78
64937;SHT30;51452;47.698;19.050;2024-03-23T08:33:08;13.41;62.77
64937;SHT30;51452;47.698;19.050;2024-03-23T08:35:33;13.52;62.76
64937;SHT30;51452;47.698;19.050;2024-03-23T08:38:00;13.56;62.88
64937;SHT30;51452;47.698;19.050;2024-03-23T08:40:25;13.67;62.77
64937;SHT30;51452;47.698;19.050;2024-03-23T08:42:50;13.72;62.31
64937;SHT30;51452;47.698;19.050;2024-03-23T08:45:16;13.70;62.50
64937;SHT30;51452;47.698;19.050;2024-03-23T08:47:41;13.80;62.45
64937;SHT30;51452;47.698;19.050;2024-03-23T08:50:07;13.83;61.79
64937;SHT30;51452;47.698;19.050;2024-03-23T08:52:33;13.91;62.16
64937;SHT30;51452;47.698;19.050;2024-03-23T08:54:58;14.03;61.58
64937;SHT30;51452;47.698;19.050;2024-03-23T08:57:24;14.12;61.41
64937;SHT30;51452;47.698;19.050;2024-03-23T08:59:50;14.07;61.89
64937;SHT30;51452;47.698;19.050;2024-03-23T09:02:15;14.12;61.25
64937;SHT30;51452;47.698;19.050;2024-03-23T09:04:40;14.17;61.49
64937;SHT30;51452;47.698;19.050;2024-03-23T09:07:06;14.31;61.36
64937;SHT30;51452;47.698;19.050;2024-03-23T09:09:31;14.42;61.22
64937;SHT30;51452;47.698;19.050;2024-03-23T09:11:57;14.47;60.96
64937;SHT30;51452;47.698;19.050;2024-03-23T09:14:22;14.54;61.06
64937;SHT30;51452;47.698;19.050;2024-03-23T09:16:51;14.76;60.51
64937;SHT30;51452;47.698;19.050;2024-03-23T09:19:17;14.82;60.02
64937;SHT30;51452;47.698;19.050;2024-03-23T09:21:42;14.81;60.14
64937;SHT30;51452;47.698;19.050;2024-03-23T09:24:08;14.91;59.98
64937;SHT30;51452;47.698;19.050;2024-03-23T09:26:33;15.03;60.22
64937;SHT30;51452;47.698;19.050;2024-03-23T09:28:59;15.22;60.08
64937;SHT30;51452;47.698;19.050;2024-03-23T09:31:24;15.47;59.33
64937;SHT30;51452;47.698;19.050;2024-03-23T09:33:50;15.67;58.87
64937;SHT30;51452;47.698;19.050;2024-03-23T09:36:15;15.77;58.22
64937;SHT30;51452;47.698;19.050;2024-03-23T09:38:41;15.90;56.99
64937;SHT30;51452;47.698;19.050;2024-03-23T09:41:07;15.94;57.68
64937;SHT30;51452;47.698;19.050;2024-03-23T09:43:33;16.02;57.55
64937;SHT30;51452;47.698;19.050;2024-03-23T09:45:59;15.94;57.47
64937;SHT30;51452;47.698;19.050;2024-03-23T09:48:24;15.87;58.30
64937;SHT30;51452;47.698;19.050;2024-03-23T09:50:50;15.95;58.36
64937;SHT30;51452;47.698;19.050;2024-03-23T09:53:15;15.98;57.87
64937;SHT30;51452;47.698;19.050;2024-03-23T09:55:42;16.00;57.39
64937;SHT30;51452;47.698;19.050;2024-03-23T09:58:12;16.12;57.22
64937;SHT30;51452;47.698;19.050;2024-03-23T10:00:38;16.15;56.60
64937;SHT30;51452;47.698;19.050;2024-03-23T10:03:04;16.06;58.44
64937;SHT30;51452;47.698;19.050;2024-03-23T10:05:31;16.16;57.63
64937;SHT30;51452;47.698;19.050;2024-03-23T10:07:59;16.22;57.14
64937;SHT30;51452;47.698;19.050;2024-03-23T10:10:25;16.48;56.94
64937;SHT30;51452;47.698;19.050;2024-03-23T10:12:51;16.55;56.28
64937;SHT30;51452;47.698;19.050;2024-03-23T10:15:25;16.72;56.86
64937;SHT30;51452;47.698;19.050;2024-03-23T10:17:51;16.69;56.51
64937;SHT30;51452;47.698;19.050;2024-03-23T10:20:23;16.76;56.12
64937;SHT30;51452;47.698;19.050;2024-03-23T10:22:49;16.97;56.42
64937;SHT30;51452;47.698;19.050;2024-03-23T10:25:16;17.08;56.09
64937;SHT30;51452;47.698;19.050;2024-03-23T10:27:42;17.14;56.14
64937;SHT30;51452;47.698;19.050;2024-03-23T10:30:09;17.30;56.34
64937;SHT30;51452;47.698;19.050;2024-03-23T10:32:35;17.42;55.11
64937;SHT30;51452;47.698;19.050;2024-03-23T10:35:21;17.62;56.37
64937;SHT30;51452;47.698;19.050;2024-03-23T10:37:47;17.87;54.61
64937;SHT30;51452;47.698;19.050;2024-03-23T10:40:17;17.90;54.59
64937;SHT30;51452;47.698;19.050;2024-03-23T10:42:44;17.90;54.07
64937;SHT30;51452;47.698;19.050;2024-03-23T10:45:09;18.13;53.79
64937;SHT30;51452;47.698;19.050;2024-03-23T10:47:36;18.02;52.92
64937;SHT30;51452;47.698;19.050;2024-03-23T10:50:02;18.00;53.80
64937;SHT30;51452;47.698;19.050;2024-03-23T10:52:28;17.85;50.52
64937;SHT30;51452;47.698;19.050;2024-03-23T10:54:55;18.00;51.29
64937;SHT30;51452;47.698;19.050;2024-03-23T10:57:25;18.07;51.22
64937;SHT30;51452;47.698;19.050;2024-03-23T10:59:52;18.17;49.87
64937;SHT30;51452;47.698;19.050;2024-03-23T11:02:21;18.32;48.83
64937;SHT30;51452;47.698;19.050;2024-03-23T11:04:47;18.48;50.71
64937;SHT30;51452;47.698;19.050;2024-03-23T11:07:30;18.54;49.32
64937;SHT30;51452;47.698;19.050;2024-03-23T11:09:57;18.64;48.46
64937;SHT30;51452;47.698;19.050;2024-03-23T11:14:49;18.87;48.06
64937;SHT30;51452;47.698;19.050;2024-03-23T11:17:22;18.89;47.51
64937;SHT30;51452;47.698;19.050;2024-03-23T11:20:01;18.79;47.15
64937;SHT30;51452;47.698;19.050;2024-03-23T11:22:44;18.64;48.33
64937;SHT30;51452;47.698;19.050;2024-03-23T11:27:39;18.74;47.74
64937;SHT30;51452;47.698;19.050;2024-03-23T11:30:15;18.83;48.62
64937;SHT30;51452;47.698;19.050;2024-03-23T11:32:45;18.77;47.29
64937;SHT30;51452;47.698;19.050;2024-03-23T11:35:30;18.74;48.70
64937;SHT30;51452;47.698;19.050;2024-03-23T11:38:04;18.67;47.65
64937;SHT30;51452;47.698;19.050;2024-03-23T11:40:30;18.72;47.25
64937;SHT30;51452;47.698;19.050;2024-03-23T11:42:58;18.98;46.91
64937;SHT30;51452;47.698;19.050;2024-03-23T11:45:24;19.01;46.66
64937;SHT30;51452;47.698;19.050;2024-03-23T11:48:02;18.84;46.98
64937;SHT30;51452;47.698;19.050;2024-03-23T11:50:28;18.96;47.27
64937;SHT30;51452;47.698;19.050;2024-03-23T11:53:08;19.15;47.46
64937;SHT30;51452;47.698;19.050;2024-03-23T11:55:46;19.19;45.84
64937;SHT30;51452;47.698;19.050;2024-03-23T11:58:12;19.23;45.08
64937;SHT30;51452;47.698;19.050;2024-03-23T12:00:38;19.20;44.98
64937;SHT30;51452;47.698;19.050;2024-03-23T12:03:04;19.32;45.83
64937;SHT30;51452;47.698;19.050;2024-03-23T12:05:33;19.08;44.34
64937;SHT30;51452;47.698;19.050;2024-03-23T12:08:19;19.05;43.84
64937;SHT30;51452;47.698;19.050;2024-03-23T12:11:04;19.26;43.95
64937;SHT30;51452;47.698;19.050;2024-03-23T12:13:30;19.22;44.16
64937;SHT30;51452;47.698;19.050;2024-03-23T12:18:41;19.26;44.81
64937;SHT30;51452;47.698;19.050;2024-03-23T12:21:07;19.37;45.41
64937;SHT30;51452;47.698;19.050;2024-03-23T12:23:33;19.29;45.01
64937;SHT30;51452;47.698;19.050;2024-03-23T12:25:59;19.14;45.07
64937;SHT30;51452;47.698;19.050;2024-03-23T12:28:25;18.99;45.37
64937;SHT30;51452;47.698;19.050;2024-03-23T12:30:51;19.02;45.12
64937;SHT30;51452;47.698;19.050;2024-03-23T12:33:20;18.96;45.47
64937;SHT30;51452;47.698;19.050;2024-03-23T12:35:46;18.89;44.79
64937;SHT30;51452;47.698;19.050;2024-03-23T12:38:12;18.83;44.60
64937;SHT30;51452;47.698;19.050;2024-03-23T12:40:37;18.64;44.99
64937;SHT30;51452;47.698;19.050;2024-03-23T12:43:02;18.63;44.57
64937;SHT30;51452;47.698;19.050;2024-03-23T12:45:28;18.65;45.47
64937;SHT30;51452;47.698;19.050;2024-03-23T12:47:53;18.64;45.28
64937;SHT30;51452;47.698;19.050;2024-03-23T12:50:19;18.41;45.17
64937;SHT30;51452;47.698;19.050;2024-03-23T12:52:45;18.43;44.69
64937;SHT30;51452;47.698;19.050;2024-03-23T12:55:11;18.40;44.83
64937;SHT30;51452;47.698;19.050;2024-03-23T12:57:36;18.32;44.84
64937;SHT30;51452;47.698;19.050;2024-03-23T13:00:01;18.26;45.53
64937;SHT30;51452;47.698;19.050;2024-03-23T13:02:28;18.26;45.50
64937;SHT30;51452;47.698;19.050;2024-03-23T13:04:54;18.22;45.81
64937;SHT30;51452;47.698;19.050;2024-03-23T13:07:21;18.29;45.64
64937;SHT30;51452;47.698;19.050;2024-03-23T13:09:47;18.17;46.09
64937;SHT30;51452;47.698;19.050;2024-03-23T13:12:12;18.12;45.99
64937;SHT30;51452;47.698;19.050;2024-03-23T13:14:39;18.07;46.11
64937;SHT30;51452;47.698;19.050;2024-03-23T13:17:05;18.10;46.26
64937;SHT30;51452;47.698;19.050;2024-03-23T13:19:30;18.02;46.62
64937;SHT30;51452;47.698;19.050;2024-03-23T13:22:00;18.12;46.62
64937;SHT30;51452;47.698;19.050;2024-03-23T13:24:27;18.18;46.67
64937;SHT30;51452;47.698;19.050;2024-03-23T13:26:54;18.20;45.56
64937;SHT30;51452;47.698;19.050;2024-03-23T13:29:20;18.12;46.29
64937;SHT30;51452;47.698;19.050;2024-03-23T13:31:46;18.10;46.11
64937;SHT30;51452;47.698;19.050;2024-03-23T13:34:12;18.16;46.57
64937;SHT30;51452;47.698;19.050;2024-03-23T13:36:40;18.07;45.89
64937;SHT30;51452;47.698;19.050;2024-03-23T13:39:06;18.09;45.39
64937;SHT30;51452;47.698;19.050;2024-03-23T13:41:44;18.12;45.83
64937;SHT30;51452;47.698;19.050;2024-03-23T13:44:11;18.14;44.88
64937;SHT30;51452;47.698;19.050;2024-03-23T13:46:37;18.05;45.37
64937;SHT30;51452;47.698;19.050;2024-03-23T13:49:03;17.97;45.50
64937;SHT30;51452;47.698;19.050;2024-03-23T13:51:29;17.89;45.36
64937;SHT30;51452;47.698;19.050;2024-03-23T13:53:54;17.85;44.78
64937;SHT30;51452;47.698;19.050;2024-03-23T13:56:21;17.75;44.82
64937;SHT30;51452;47.698;19.050;2024-03-23T13:58:47;17.90;45.12
64937;SHT30;51452;47.698;19.050;2024-03-23T14:01:16;17.86;45.38
64937;SHT30;51452;47.698;19.050;2024-03-23T14:03:42;17.97;45.58
64937;SHT30;51452;47.698;19.050;2024-03-23T14:06:08;17.96;45.28
64937;SHT30;51452;47.698;19.050;2024-03-23T14:08:35;17.92;44.81
64937;SHT30;51452;47.698;19.050;2024-03-23T14:11:05;17.85;44.94
64937;SHT30;51452;47.698;19.050;2024-03-23T14:13:31;17.65;45.07
64937;SHT30;51452;47.698;19.050;2024-03-23T14:15:57;17.76;45.75
64937;SHT30;51452;47.698;19.050;2024-03-23T14:18:22;17.78;45.38
64937;SHT30;51452;47.698;19.050;2024-03-23T14:20:49;17.79;45.65
64937;SHT30;51452;47.698;19.050;2024-03-23T14:23:14;17.79;46.12
64937;SHT30;51452;47.698;19.050;2024-03-23T14:25:40;17.72;44.93
64937;SHT30;51452;47.698;19.050;2024-03-23T14:28:05;17.72;44.98
64937;SHT30;51452;47.698;19.050;2024-03-23T14:30:30;17.69;45.52
64937;SHT30;51452;47.698;19.050;2024-03-23T14:32:57;17.66;45.32
64937;SHT30;51452;47.698;19.050;2024-03-23T14:35:22;17.69;45.07
64937;SHT30;51452;47.698;19.050;2024-03-23T14:37:48;17.72;45.23
64937;SHT30;51452;47.698;19.050;2024-03-23T14:40:14;17.62;45.13
64937;SHT30;51452;47.698;19.050;2024-03-23T14:42:39;17.65;45.60
64937;SHT30;51452;47.698;19.050;2024-03-23T14:45:06;17.76;45.63
64937;SHT30;51452;47.698;19.050;2024-03-23T14:47:32;17.74;45.59
64937;SHT30;51452;47.698;19.050;2024-03-23T14:49:57;17.74;46.06
64937;SHT30;51452;47.698;19.050;2024-03-23T14:52:24;17.76;45.65
64937;SHT30;51452;47.698;19.050;2024-03-23T14:54:49;17.72;45.68
64937;SHT30;51452;47.698;19.050;2024-03-23T14:57:15;17.75;45.44
64937;SHT30;51452;47.698;19.050;2024-03-23T14:59:40;17.76;45.31
64937;SHT30;51452;47.698;19.050;2024-03-23T15:02:09;17.74;45.55
64937;SHT30;51452;47.698;19.050;2024-03-23T15:04:35;17.82;45.80
64937;SHT30;51452;47.698;19.050;2024-03-23T15:07:01;17.78;45.25
64937;SHT30;51452;47.698;19.050;2024-03-23T15:09:26;17.81;45.65
64937;SHT30;51452;47.698;19.050;2024-03-23T15:11:52;17.89;45.99
64937;SHT30;51452;47.698;19.050;2024-03-23T15:14:20;17.86;45.90
64937;SHT30;51452;47.698;19.050;2024-03-23T15:16:45;17.83;45.55
64937;SHT30;51452;47.698;19.050;2024-03-23T15:19:14;17.82;45.49
64937;SHT30;51452;47.698;19.050;2024-03-23T15:21:39;17.78;45.76
64937;SHT30;51452;47.698;19.050;2024-03-23T15:24:05;17.75;45.27
64937;SHT30;51452;47.698;19.050;2024-03-23T15:26:30;17.68;45.31
64937;SHT30;51452;47.698;19.050;2024-03-23T15:28:56;17.68;45.17
64937;SHT30;51452;47.698;19.050;2024-03-23T15:31:21;17.62;45.98
64937;SHT30;51452;47.698;19.050;2024-03-23T15:33:47;17.55;45.80
64937;SHT30;51452;47.698;19.050;2024-03-23T15:36:12;17.51;45.86
64937;SHT30;51452;47.698;19.050;2024-03-23T15:38:37;17.52;45.56
64937;SHT30;51452;47.698;19.050;2024-03-23T15:41:05;17.69;45.61
64937;SHT30;51452;47.698;19.050;2024-03-23T15:43:31;17.58;45.75
64937;SHT30;51452;47.698;19.050;2024-03-23T15:45:57;17.52;46.03
64937;SHT30;51452;47.698;19.050;2024-03-23T15:48:24;17.54;46.42
64937;SHT30;51452;47.698;19.050;2024-03-23T15:50:55;17.47;46.10
64937;SHT30;51452;47.698;19.050;2024-03-23T15:53:21;17.45;45.43
64937;SHT30;51452;47.698;19.050;2024-03-23T15:56:00;17.56;46.27
64937;SHT30;51452;47.698;19.050;2024-03-23T15:58:26;17.51;46.24
64937;SHT30;51452;47.698;19.050;2024-03-23T16:00:56;17.52;46.23
64937;SHT30;51452;47.698;19.050;2024-03-23T16:03:22;17.47;46.08
64937;SHT30;51452;47.698;19.050;2024-03-23T16:05:55;17.48;46.06
64937;SHT30;51452;47.698;19.050;2024-03-23T16:08:21;17.45;45.29
64937;SHT30;51452;47.698;19.050;2024-03-23T16:10:46;17.42;45.32
64937;SHT30;51452;47.698;19.050;2024-03-23T16:13:12;17.41;45.33
64937;SHT30;51452;47.698;19.050;2024-03-23T16:15:37;17.38;45.60
64937;SHT30;51452;47.698;19.050;2024-03-23T16:18:03;17.34;45.95